THY9217 EDDS-EDDF
Flight info
| Callsign | THY9217 |
|---|---|
| Flight time | 0h 36m |
| Altitude | 22000 |
| Route | ETASA4B ETASA T163 SPESA SPESA5B |
| Aircraft | A20N/M-SDE2E3FGHIRWXY/LB1 |
Departure
| Time | 2026-05-07 16:23 |
|---|---|
| Airport | Stuttgart Airport (EDDS) |
Arrival
| Time | 2026-05-07 16:59 |
|---|---|
| Airport | Frankfurt Main Airport (EDDF) |
| Time | Latitude | Longitude | Altitude | Speed | Heading |
|---|---|---|---|---|---|
| 2026-05-07 15:58 | 48.68811 | 9.19743 | 1291 ft | 0 kts | 164° |
| 2026-05-07 16:16 | 48.68792 | 9.19751 | 1290 ft | 7 kts | 165° |
| 2026-05-07 16:16 | 48.68751 | 9.19813 | 1287 ft | 9 kts | 87° |
| 2026-05-07 16:16 | 48.68786 | 9.19905 | 1286 ft | 12 kts | 59° |
| 2026-05-07 16:17 | 48.68834 | 9.20025 | 1285 ft | 14 kts | 61° |
| 2026-05-07 16:17 | 48.68868 | 9.20182 | 1283 ft | 18 kts | 72° |
| 2026-05-07 16:17 | 48.68907 | 9.20384 | 1281 ft | 22 kts | 76° |
| 2026-05-07 16:17 | 48.68947 | 9.20614 | 1271 ft | 22 kts | 73° |
| 2026-05-07 16:18 | 48.68989 | 9.20828 | 1267 ft | 18 kts | 74° |
| 2026-05-07 16:18 | 48.69032 | 9.21033 | 1264 ft | 23 kts | 72° |
| 2026-05-07 16:18 | 48.69085 | 9.21271 | 1259 ft | 25 kts | 70° |
| 2026-05-07 16:18 | 48.69145 | 9.21491 | 1260 ft | 22 kts | 71° |
| 2026-05-07 16:19 | 48.69152 | 9.21663 | 1250 ft | 17 kts | 85° |
| 2026-05-07 16:19 | 48.69190 | 9.21873 | 1242 ft | 24 kts | 71° |
| 2026-05-07 16:19 | 48.69240 | 9.22135 | 1240 ft | 28 kts | 76° |
| 2026-05-07 16:19 | 48.69298 | 9.22431 | 1230 ft | 30 kts | 72° |
| 2026-05-07 16:20 | 48.69354 | 9.22751 | 1226 ft | 32 kts | 75° |
| 2026-05-07 16:20 | 48.69419 | 9.23085 | 1221 ft | 34 kts | 72° |
| 2026-05-07 16:20 | 48.69490 | 9.23445 | 1210 ft | 37 kts | 71° |
| 2026-05-07 16:20 | 48.69545 | 9.23738 | 1203 ft | 20 kts | 75° |
| 2026-05-07 16:21 | 48.69579 | 9.23927 | 1200 ft | 20 kts | 73° |
| 2026-05-07 16:21 | 48.69606 | 9.24160 | 1193 ft | 25 kts | 103° |
| 2026-05-07 16:21 | 48.69550 | 9.24298 | 1190 ft | 12 kts | 155° |
| 2026-05-07 16:21 | 48.69451 | 9.24333 | 1188 ft | 17 kts | 170° |
| 2026-05-07 16:22 | 48.69377 | 9.24260 | 1190 ft | 13 kts | 249° |
| 2026-05-07 16:22 | 48.69348 | 9.24117 | 1191 ft | 17 kts | 253° |
| 2026-05-07 16:22 | 48.69250 | 9.23599 | 1205 ft | 85 kts | 254° |
| 2026-05-07 16:22 | 48.69039 | 9.22474 | 1230 ft | 138 kts | 253° |
| 2026-05-07 16:23 | 48.68729 | 9.20928 | 1528 ft | 160 kts | 256° |
| 2026-05-07 16:23 | 48.68421 | 9.19259 | 2218 ft | 165 kts | 258° |
| 2026-05-07 16:23 | 48.68156 | 9.17571 | 2934 ft | 165 kts | 259° |
| 2026-05-07 16:23 | 48.67890 | 9.15828 | 3386 ft | 179 kts | 258° |
| 2026-05-07 16:24 | 48.67520 | 9.13918 | 3725 ft | 199 kts | 253° |
| 2026-05-07 16:24 | 48.67044 | 9.11790 | 4130 ft | 225 kts | 253° |
| 2026-05-07 16:24 | 48.66878 | 9.09409 | 4959 ft | 233 kts | 281° |
| 2026-05-07 16:24 | 48.67573 | 9.07206 | 5925 ft | 238 kts | 310° |
| 2026-05-07 16:25 | 48.68961 | 9.05793 | 6858 ft | 248 kts | 339° |
| 2026-05-07 16:25 | 48.70683 | 9.05293 | 7765 ft | 256 kts | 350° |
| 2026-05-07 16:25 | 48.72500 | 9.04790 | 8344 ft | 276 kts | 344° |
| 2026-05-07 16:25 | 48.74378 | 9.03991 | 9154 ft | 283 kts | 340° |
| 2026-05-07 16:26 | 48.76238 | 9.03065 | 10108 ft | 287 kts | 339° |
| 2026-05-07 16:26 | 48.78183 | 9.02087 | 10668 ft | 307 kts | 344° |
| 2026-05-07 16:26 | 48.80399 | 9.01917 | 11002 ft | 334 kts | 7° |
| 2026-05-07 16:26 | 48.81929 | 9.02591 | 11330 ft | 346 kts | 23° |
| 2026-05-07 16:27 | 48.84737 | 9.05015 | 12439 ft | 353 kts | 31° |
| 2026-05-07 16:27 | 48.86856 | 9.06933 | 13293 ft | 357 kts | 26° |
| 2026-05-07 16:27 | 48.89181 | 9.08293 | 14105 ft | 359 kts | 14° |
| 2026-05-07 16:27 | 48.91652 | 9.08935 | 14866 ft | 362 kts | 4° |
| 2026-05-07 16:28 | 48.94172 | 9.09287 | 15613 ft | 366 kts | 4° |
| 2026-05-07 16:28 | 48.96718 | 9.09647 | 16347 ft | 370 kts | 4° |
| 2026-05-07 16:28 | 48.99299 | 9.10016 | 17061 ft | 374 kts | 4° |
| 2026-05-07 16:28 | 49.01904 | 9.10388 | 17783 ft | 379 kts | 4° |
| 2026-05-07 16:29 | 49.04545 | 9.10766 | 18461 ft | 383 kts | 4° |
| 2026-05-07 16:29 | 49.07210 | 9.11147 | 19088 ft | 387 kts | 4° |
| 2026-05-07 16:29 | 49.09902 | 9.11532 | 19721 ft | 390 kts | 4° |
| 2026-05-07 16:29 | 49.12620 | 9.11921 | 20337 ft | 394 kts | 4° |
| 2026-05-07 16:30 | 49.15366 | 9.12315 | 20953 ft | 398 kts | 4° |
| 2026-05-07 16:30 | 49.18133 | 9.12712 | 21563 ft | 402 kts | 4° |
| 2026-05-07 16:30 | 49.20931 | 9.13112 | 21937 ft | 405 kts | 4° |
| 2026-05-07 16:30 | 49.23744 | 9.13512 | 22029 ft | 406 kts | 4° |
| 2026-05-07 16:31 | 49.26553 | 9.13911 | 22031 ft | 405 kts | 4° |
| 2026-05-07 16:31 | 49.29358 | 9.14309 | 22033 ft | 405 kts | 4° |
| 2026-05-07 16:31 | 49.32164 | 9.14707 | 22036 ft | 405 kts | 4° |
| 2026-05-07 16:31 | 49.34968 | 9.15106 | 22036 ft | 405 kts | 4° |
| 2026-05-07 16:32 | 49.37743 | 9.15502 | 22037 ft | 405 kts | 4° |
| 2026-05-07 16:32 | 49.40550 | 9.15902 | 22037 ft | 405 kts | 4° |
| 2026-05-07 16:32 | 49.43351 | 9.16302 | 22036 ft | 405 kts | 4° |
| 2026-05-07 16:32 | 49.46161 | 9.16703 | 22038 ft | 405 kts | 4° |
| 2026-05-07 16:33 | 49.48966 | 9.17105 | 22037 ft | 404 kts | 4° |
| 2026-05-07 16:33 | 49.51756 | 9.17506 | 22040 ft | 404 kts | 4° |
| 2026-05-07 16:33 | 49.54564 | 9.17910 | 22043 ft | 404 kts | 4° |
| 2026-05-07 16:33 | 49.57362 | 9.18313 | 22042 ft | 404 kts | 4° |
| 2026-05-07 16:34 | 49.60167 | 9.18717 | 22039 ft | 404 kts | 4° |
| 2026-05-07 16:34 | 49.62962 | 9.19171 | 22044 ft | 405 kts | 9° |
| 2026-05-07 16:34 | 49.65646 | 9.20478 | 22043 ft | 407 kts | 25° |
| 2026-05-07 16:34 | 49.68002 | 9.22875 | 22049 ft | 408 kts | 41° |
| 2026-05-07 16:35 | 49.69996 | 9.25995 | 22044 ft | 409 kts | 46° |
| 2026-05-07 16:35 | 49.72142 | 9.28866 | 22052 ft | 408 kts | 33° |
| 2026-05-07 16:35 | 49.74494 | 9.31319 | 22028 ft | 408 kts | 37° |
| 2026-05-07 16:35 | 49.76625 | 9.34232 | 21800 ft | 408 kts | 43° |
| 2026-05-07 16:36 | 49.78660 | 9.37278 | 21505 ft | 406 kts | 44° |
| 2026-05-07 16:36 | 49.80681 | 9.40313 | 21173 ft | 403 kts | 44° |
| 2026-05-07 16:36 | 49.82685 | 9.43325 | 20839 ft | 401 kts | 44° |
| 2026-05-07 16:36 | 49.84677 | 9.46322 | 20504 ft | 398 kts | 44° |
| 2026-05-07 16:37 | 49.86661 | 9.49310 | 20105 ft | 398 kts | 44° |
| 2026-05-07 16:37 | 49.88642 | 9.52294 | 19640 ft | 395 kts | 44° |
| 2026-05-07 16:37 | 49.90599 | 9.55247 | 19176 ft | 390 kts | 44° |
| 2026-05-07 16:37 | 49.92534 | 9.58170 | 18722 ft | 387 kts | 44° |
| 2026-05-07 16:38 | 49.94446 | 9.61065 | 18262 ft | 382 kts | 44° |
| 2026-05-07 16:38 | 49.96343 | 9.63923 | 17750 ft | 377 kts | 41° |
| 2026-05-07 16:38 | 49.98510 | 9.66112 | 17247 ft | 371 kts | 21° |
| 2026-05-07 16:38 | 50.00999 | 9.67004 | 16731 ft | 361 kts | 0° |
| 2026-05-07 16:39 | 50.03417 | 9.66496 | 16245 ft | 346 kts | 339° |
| 2026-05-07 16:39 | 50.05458 | 9.64723 | 15763 ft | 331 kts | 317° |
| 2026-05-07 16:39 | 50.06850 | 9.61978 | 15288 ft | 318 kts | 294° |
| 2026-05-07 16:39 | 50.07312 | 9.59856 | 14980 ft | 310 kts | 278° |
| 2026-05-07 16:40 | 50.07087 | 9.55524 | 14363 ft | 297 kts | 254° |
| 2026-05-07 16:40 | 50.06718 | 9.53494 | 14064 ft | 293 kts | 253° |
| 2026-05-07 16:40 | 50.06159 | 9.50471 | 13581 ft | 287 kts | 253° |
| 2026-05-07 16:40 | 50.05417 | 9.46567 | 12910 ft | 280 kts | 253° |
| 2026-05-07 16:41 | 50.05053 | 9.44614 | 12573 ft | 277 kts | 253° |
| 2026-05-07 16:41 | 50.04518 | 9.41735 | 12088 ft | 275 kts | 253° |
| 2026-05-07 16:41 | 50.03993 | 9.38901 | 11606 ft | 271 kts | 253° |
| 2026-05-07 16:41 | 50.03476 | 9.36114 | 11133 ft | 267 kts | 253° |
| 2026-05-07 16:42 | 50.02966 | 9.33362 | 10649 ft | 263 kts | 253° |
| 2026-05-07 16:42 | 50.02461 | 9.30650 | 10204 ft | 259 kts | 253° |
| 2026-05-07 16:42 | 50.01965 | 9.27969 | 9722 ft | 256 kts | 253° |
| 2026-05-07 16:42 | 50.01477 | 9.25321 | 9216 ft | 254 kts | 253° |
| 2026-05-07 16:43 | 50.00993 | 9.22708 | 8734 ft | 252 kts | 253° |
| 2026-05-07 16:43 | 50.00503 | 9.20075 | 8256 ft | 251 kts | 253° |
| 2026-05-07 16:43 | 50.00021 | 9.17472 | 7754 ft | 250 kts | 253° |
| 2026-05-07 16:43 | 49.99534 | 9.14890 | 7284 ft | 248 kts | 253° |
| 2026-05-07 16:44 | 49.99051 | 9.12328 | 6646 ft | 246 kts | 253° |
| 2026-05-07 16:44 | 49.98577 | 9.09823 | 6195 ft | 244 kts | 253° |
| 2026-05-07 16:44 | 49.98106 | 9.07304 | 5703 ft | 242 kts | 257° |
| 2026-05-07 16:44 | 49.98135 | 9.04733 | 5229 ft | 239 kts | 287° |
| 2026-05-07 16:45 | 49.99006 | 9.02603 | 4882 ft | 235 kts | 317° |
| 2026-05-07 16:45 | 50.00453 | 9.01507 | 4556 ft | 231 kts | 346° |
| 2026-05-07 16:45 | 50.02026 | 9.01505 | 4218 ft | 229 kts | 15° |
| 2026-05-07 16:45 | 50.03347 | 9.02804 | 3952 ft | 223 kts | 51° |
| 2026-05-07 16:46 | 50.04122 | 9.04889 | 3901 ft | 223 kts | 63° |
| 2026-05-07 16:46 | 50.04800 | 9.07048 | 3896 ft | 224 kts | 64° |
| 2026-05-07 16:46 | 50.05484 | 9.09233 | 3884 ft | 223 kts | 64° |
| 2026-05-07 16:46 | 50.06165 | 9.11406 | 3865 ft | 222 kts | 64° |
| 2026-05-07 16:47 | 50.06846 | 9.13570 | 3872 ft | 224 kts | 64° |
| 2026-05-07 16:47 | 50.07523 | 9.15727 | 3861 ft | 220 kts | 64° |
| 2026-05-07 16:47 | 50.08206 | 9.17902 | 4051 ft | 225 kts | 63° |
| 2026-05-07 16:47 | 50.08883 | 9.20074 | 4041 ft | 222 kts | 64° |
| 2026-05-07 16:48 | 50.09557 | 9.22249 | 4055 ft | 223 kts | 63° |
| 2026-05-07 16:48 | 50.10229 | 9.24416 | 4051 ft | 223 kts | 60° |
| 2026-05-07 16:48 | 50.11271 | 9.26163 | 4050 ft | 221 kts | 26° |
| 2026-05-07 16:48 | 50.12715 | 9.26731 | 4047 ft | 214 kts | 352° |
| 2026-05-07 16:49 | 50.14106 | 9.26101 | 4047 ft | 210 kts | 333° |
| 2026-05-07 16:49 | 50.15208 | 9.24740 | 4050 ft | 202 kts | 299° |
| 2026-05-07 16:49 | 50.15709 | 9.22695 | 4045 ft | 204 kts | 284° |
| 2026-05-07 16:49 | 50.16078 | 9.20570 | 4052 ft | 202 kts | 283° |
| 2026-05-07 16:50 | 50.16433 | 9.18450 | 3843 ft | 201 kts | 276° |
| 2026-05-07 16:50 | 50.16305 | 9.16299 | 3852 ft | 201 kts | 256° |
| 2026-05-07 16:50 | 50.15964 | 9.14212 | 3848 ft | 200 kts | 262° |
| 2026-05-07 16:50 | 50.15829 | 9.12024 | 3854 ft | 201 kts | 265° |
| 2026-05-07 16:51 | 50.15718 | 9.09853 | 3840 ft | 201 kts | 265° |
| 2026-05-07 16:51 | 50.15519 | 9.07691 | 3853 ft | 202 kts | 257° |
| 2026-05-07 16:51 | 50.15146 | 9.05609 | 3855 ft | 199 kts | 251° |
| 2026-05-07 16:51 | 50.14680 | 9.03543 | 3873 ft | 203 kts | 249° |
| 2026-05-07 16:52 | 50.14196 | 9.01504 | 3883 ft | 198 kts | 249° |
| 2026-05-07 16:52 | 50.13711 | 8.99460 | 3888 ft | 202 kts | 249° |
| 2026-05-07 16:52 | 50.13228 | 8.97424 | 3908 ft | 200 kts | 250° |
| 2026-05-07 16:52 | 50.12743 | 8.95378 | 3902 ft | 200 kts | 249° |
| 2026-05-07 16:53 | 50.12260 | 8.93348 | 3927 ft | 202 kts | 250° |
| 2026-05-07 16:53 | 50.11781 | 8.91329 | 3926 ft | 191 kts | 250° |
| 2026-05-07 16:53 | 50.11337 | 8.89460 | 3934 ft | 176 kts | 250° |
| 2026-05-07 16:53 | 50.10930 | 8.87749 | 3946 ft | 161 kts | 250° |
| 2026-05-07 16:54 | 50.10528 | 8.86054 | 3955 ft | 170 kts | 250° |
| 2026-05-07 16:54 | 50.10116 | 8.84322 | 3946 ft | 172 kts | 250° |
| 2026-05-07 16:54 | 50.09703 | 8.82587 | 3770 ft | 170 kts | 250° |
| 2026-05-07 16:54 | 50.09293 | 8.80862 | 3551 ft | 168 kts | 250° |
| 2026-05-07 16:55 | 50.08885 | 8.79149 | 3338 ft | 171 kts | 250° |
| 2026-05-07 16:55 | 50.08471 | 8.77405 | 3165 ft | 169 kts | 250° |
| 2026-05-07 16:55 | 50.08069 | 8.75720 | 2926 ft | 163 kts | 251° |
| 2026-05-07 16:55 | 50.07697 | 8.74160 | 2714 ft | 159 kts | 252° |
| 2026-05-07 16:56 | 50.07321 | 8.72579 | 2513 ft | 149 kts | 252° |
| 2026-05-07 16:56 | 50.06980 | 8.71145 | 2326 ft | 138 kts | 253° |
| 2026-05-07 16:56 | 50.06387 | 8.68649 | 2000 ft | 128 kts | 254° |
| 2026-05-07 16:57 | 50.06075 | 8.67337 | 1829 ft | 131 kts | 253° |
| 2026-05-07 16:57 | 50.05762 | 8.66028 | 1637 ft | 127 kts | 254° |
| 2026-05-07 16:57 | 50.05442 | 8.64722 | 1468 ft | 130 kts | 252° |
| 2026-05-07 16:57 | 50.05132 | 8.63395 | 1168 ft | 130 kts | 253° |
| 2026-05-07 16:58 | 50.04829 | 8.62080 | 923 ft | 128 kts | 251° |
| 2026-05-07 16:58 | 50.04518 | 8.60773 | 738 ft | 131 kts | 250° |
| 2026-05-07 16:58 | 50.04205 | 8.59460 | 508 ft | 129 kts | 249° |
| 2026-05-07 16:58 | 50.03896 | 8.58164 | 395 ft | 128 kts | 247° |
| 2026-05-07 16:59 | 50.03594 | 8.56934 | 357 ft | 105 kts | 250° |
| 2026-05-07 16:59 | 50.03430 | 8.56151 | 364 ft | 29 kts | 275° |
| 2026-05-07 16:59 | 50.03449 | 8.55991 | 360 ft | 7 kts | 278° |
| 2026-05-07 16:59 | 50.03454 | 8.55939 | 355 ft | 2 kts | 278° |
| 2026-05-07 17:00 | 50.03458 | 8.55887 | 354 ft | 8 kts | 277° |
| 2026-05-07 17:00 | 50.03467 | 8.55784 | 355 ft | 11 kts | 278° |
| 2026-05-07 17:00 | 50.03527 | 8.55720 | 353 ft | 12 kts | 12° |
| 2026-05-07 17:00 | 50.03581 | 8.55829 | 363 ft | 13 kts | 68° |
| 2026-05-07 17:01 | 50.03611 | 8.55966 | 364 ft | 14 kts | 71° |
| 2026-05-07 17:01 | 50.03647 | 8.56118 | 362 ft | 17 kts | 69° |
| 2026-05-07 17:01 | 50.03689 | 8.56297 | 363 ft | 18 kts | 71° |
| 2026-05-07 17:01 | 50.03735 | 8.56497 | 363 ft | 17 kts | 71° |
| 2026-05-07 17:02 | 50.03752 | 8.56572 | 362 ft | 8 kts | 70° |
| 2026-05-07 17:02 | 50.03775 | 8.56670 | 358 ft | 11 kts | 69° |
| 2026-05-07 17:02 | 50.03810 | 8.56795 | 362 ft | 15 kts | 68° |
| 2026-05-07 17:02 | 50.03849 | 8.56960 | 358 ft | 17 kts | 70° |
| 2026-05-07 17:03 | 50.03889 | 8.57132 | 363 ft | 18 kts | 70° |
| 2026-05-07 17:03 | 50.03937 | 8.57315 | 368 ft | 18 kts | 69° |
| 2026-05-07 17:03 | 50.03984 | 8.57509 | 366 ft | 21 kts | 69° |
| 2026-05-07 17:03 | 50.04038 | 8.57733 | 363 ft | 24 kts | 69° |
| 2026-05-07 17:04 | 50.04083 | 8.57929 | 368 ft | 17 kts | 71° |
| 2026-05-07 17:04 | 50.04117 | 8.58073 | 367 ft | 12 kts | 63° |
| 2026-05-07 17:04 | 50.04183 | 8.58160 | 366 ft | 14 kts | 27° |
| 2026-05-07 17:04 | 50.04284 | 8.58201 | 365 ft | 16 kts | 352° |
| 2026-05-07 17:05 | 50.04396 | 8.58143 | 369 ft | 17 kts | 340° |
| 2026-05-07 17:05 | 50.04509 | 8.58078 | 371 ft | 18 kts | 339° |
| 2026-05-07 17:05 | 50.04633 | 8.58004 | 373 ft | 14 kts | 338° |
| 2026-05-07 17:05 | 50.04677 | 8.57976 | 373 ft | 0 kts | 339° |
| 2026-05-07 17:06 | 50.04679 | 8.57975 | 373 ft | 0 kts | 339° |
| 2026-05-07 17:06 | 50.04683 | 8.57973 | 372 ft | 2 kts | 339° |
| 2026-05-07 17:06 | 50.04714 | 8.57955 | 372 ft | 8 kts | 339° |
| 2026-05-07 17:07 | 50.04782 | 8.57916 | 370 ft | 13 kts | 340° |
| 2026-05-07 17:07 | 50.04850 | 8.57825 | 370 ft | 10 kts | 297° |
| 2026-05-07 17:07 | 50.04865 | 8.57778 | 369 ft | 2 kts | 295° |
| 2026-05-07 17:07 | 50.04878 | 8.57727 | 371 ft | 8 kts | 288° |
| 2026-05-07 17:08 | 50.04875 | 8.57663 | 369 ft | 0 kts | 257° |
| 2026-05-07 17:08 | 50.04873 | 8.57662 | 373 ft | 0 kts | 237° |
| 2026-05-07 17:08 | 50.04861 | 8.57650 | 369 ft | 4 kts | 214° |
| 2026-05-07 17:08 | 50.04835 | 8.57631 | 369 ft | 0 kts | 204° |
| 2026-05-07 17:09 | 50.04833 | 8.57629 | 368 ft | 0 kts | 203° |